createdAt,value
2018-09-20T00:00:54.545Z,98156.56
2018-09-20T00:03:22.230Z,98152.86
2018-09-20T00:05:49.914Z,98149.38
2018-09-20T00:08:17.570Z,98145.48
2018-09-20T00:10:45.332Z,98151.23
2018-09-20T00:13:13.081Z,98144.48
2018-09-20T00:15:40.747Z,98137.22
2018-09-20T00:18:08.386Z,98138.62
2018-09-20T00:20:36.095Z,98141.74
2018-09-20T00:23:03.883Z,98142.81
2018-09-20T00:25:31.516Z,98138.80
2018-09-20T00:27:59.207Z,98138.56
2018-09-20T00:30:26.865Z,98140.84
2018-09-20T00:32:54.538Z,98140.45
2018-09-20T00:35:22.279Z,98134.41
2018-09-20T00:37:49.960Z,98138.09
2018-09-20T00:40:17.720Z,98138.75
2018-09-20T00:42:45.450Z,98137.89
2018-09-20T00:45:13.156Z,98131.69
2018-09-20T00:47:40.857Z,98141.38
2018-09-20T00:50:08.616Z,98147.87
2018-09-20T00:52:36.263Z,98142.14
2018-09-20T00:55:03.995Z,98151.34
2018-09-20T00:57:31.685Z,98143.98
2018-09-20T00:59:59.360Z,98139.53
2018-09-20T01:02:27.034Z,98138.23
2018-09-20T01:04:54.737Z,98146.36
2018-09-20T01:07:22.409Z,98142.66
2018-09-20T01:09:50.138Z,98140.17
2018-09-20T01:12:17.852Z,98135.72
2018-09-20T01:14:45.523Z,98144.09
2018-09-20T01:17:13.194Z,98139.42
2018-09-20T01:19:40.873Z,98149.41
2018-09-20T01:22:08.523Z,98144.08
2018-09-20T01:24:36.182Z,98144.84
2018-09-20T01:27:03.925Z,98145.94
2018-09-20T01:29:31.587Z,98149.30
2018-09-20T01:31:59.224Z,98141.52
2018-09-20T01:34:26.917Z,98148.64
2018-09-20T01:36:54.688Z,98143.43
2018-09-20T01:39:22.383Z,98143.63
2018-09-20T01:41:50.053Z,98147.94
2018-09-20T01:44:17.690Z,98139.92
2018-09-20T01:46:45.386Z,98144.88
2018-09-20T01:49:13.176Z,98147.23
2018-09-20T01:51:41.008Z,98144.06
2018-09-20T01:54:08.664Z,98145.94
2018-09-20T01:56:36.391Z,98147.78
2018-09-20T01:59:04.158Z,98144.60
2018-09-20T02:01:31.801Z,98143.20
2018-09-20T02:03:59.489Z,98142.84
2018-09-20T02:06:27.161Z,98148.23
2018-09-20T02:08:54.808Z,98149.75
2018-09-20T02:11:22.497Z,98147.47
2018-09-20T02:13:50.287Z,98148.86
2018-09-20T02:16:17.961Z,98151.75
2018-09-20T02:18:45.713Z,98151.03
2018-09-20T02:21:13.398Z,98154.78
2018-09-20T02:23:41.055Z,98159.77
2018-09-20T02:26:08.762Z,98153.33
2018-09-20T02:28:36.444Z,98152.48
2018-09-20T02:31:04.850Z,98152.04
2018-09-20T02:33:32.541Z,98150.99
2018-09-20T02:36:00.211Z,98154.78
2018-09-20T02:38:27.845Z,98151.84
2018-09-20T02:40:55.566Z,98155.62
2018-09-20T02:43:23.280Z,98152.36
2018-09-20T02:45:50.951Z,98144.05
2018-09-20T02:48:18.582Z,98156.70
2018-09-20T02:50:46.240Z,98160.29
2018-09-20T02:53:13.955Z,98158.12
2018-09-20T02:55:41.649Z,98160.48
2018-09-20T02:58:09.317Z,98153.95
2018-09-20T03:00:37.018Z,98161.44
2018-09-20T03:03:04.657Z,98161.31
2018-09-20T03:05:32.318Z,98160.86
2018-09-20T03:07:59.990Z,98155.87
2018-09-20T03:10:27.678Z,98153.14
2018-09-20T03:12:55.348Z,98154.73
2018-09-20T03:15:23.176Z,98159.81
2018-09-20T03:17:50.978Z,98151.75
2018-09-20T03:20:18.650Z,98157.26
2018-09-20T03:22:46.311Z,98155.09
2018-09-20T03:25:13.942Z,98154.97
2018-09-20T03:27:41.596Z,98152.70
2018-09-20T03:30:09.322Z,98150.10
2018-09-20T03:32:37.001Z,98145.89
2018-09-20T03:35:04.746Z,98151.56
2018-09-20T03:37:32.446Z,98156.79
2018-09-20T03:40:00.378Z,98159.84
2018-09-20T03:42:28.069Z,98153.12
2018-09-20T03:44:55.801Z,98156.81
2018-09-20T03:47:23.464Z,98153.94
2018-09-20T03:49:51.110Z,98154.58
2018-09-20T03:52:18.888Z,98148.13
2018-09-20T03:54:46.556Z,98147.96
2018-09-20T03:57:14.202Z,98153.21
2018-09-20T03:59:41.878Z,98149.37
2018-09-20T04:02:09.574Z,98149.00
2018-09-20T04:04:37.262Z,98149.24
2018-09-20T04:07:05.041Z,98156.66
2018-09-20T04:09:32.743Z,98153.73
2018-09-20T04:12:00.337Z,98153.11
2018-09-20T04:14:28.079Z,98156.68
2018-09-20T04:16:55.754Z,98153.57
2018-09-20T04:19:23.408Z,98159.44
2018-09-20T04:21:51.220Z,98156.57
2018-09-20T04:24:18.873Z,98155.59
2018-09-20T04:26:46.555Z,98159.19
2018-09-20T04:29:14.251Z,98164.87
2018-09-20T04:31:42.118Z,98162.49
2018-09-20T04:34:09.854Z,98162.95
2018-09-20T04:36:37.567Z,98165.70
2018-09-20T04:39:07.600Z,98166.34
2018-09-20T04:41:35.308Z,98169.27
2018-09-20T04:44:03.069Z,98167.62
2018-09-20T04:46:30.789Z,98172.45
2018-09-20T04:48:58.478Z,98167.30
2018-09-20T04:51:26.198Z,98176.00
2018-09-20T04:53:53.877Z,98176.00
2018-09-20T04:56:21.583Z,98172.50
2018-09-20T04:58:49.249Z,98172.59
2018-09-20T05:01:16.963Z,98173.53
2018-09-20T05:03:44.639Z,98175.40
2018-09-20T05:06:12.316Z,98172.84
2018-09-20T05:08:40.005Z,98177.30
2018-09-20T05:11:08.052Z,98178.16
2018-09-20T05:13:41.949Z,98173.78
2018-09-20T05:16:09.934Z,98175.53
2018-09-20T05:18:38.007Z,98171.69
2018-09-20T05:21:06.156Z,98167.68
2018-09-20T05:23:34.122Z,98163.06
2018-09-20T05:26:01.967Z,98169.14
2018-09-20T05:28:30.151Z,98163.98
2018-09-20T05:30:58.017Z,98162.99
2018-09-20T05:33:25.972Z,98170.08
2018-09-20T05:35:54.000Z,98166.44
2018-09-20T05:38:21.868Z,98172.69
2018-09-20T05:40:49.785Z,98178.78
2018-09-20T05:43:17.598Z,98178.98
2018-09-20T05:45:45.453Z,98182.53
2018-09-20T05:48:13.322Z,98173.16
2018-09-20T05:50:41.340Z,98178.51
2018-09-20T05:53:09.184Z,98182.16
2018-09-20T05:55:37.056Z,98173.94
2018-09-20T05:58:05.042Z,98174.37
2018-09-20T06:00:32.994Z,98179.23
2018-09-20T06:03:00.774Z,98176.57
2018-09-20T06:05:28.809Z,98172.80
2018-09-20T06:07:56.710Z,98169.77
2018-09-20T06:10:24.581Z,98167.92
2018-09-20T06:12:52.472Z,98180.17
2018-09-20T06:15:20.315Z,98180.59
2018-09-20T06:17:48.190Z,98180.41
2018-09-20T06:20:16.090Z,98184.20
2018-09-20T06:22:43.931Z,98191.28
2018-09-20T06:25:12.032Z,98191.95
2018-09-20T06:27:40.115Z,98191.01
2018-09-20T06:30:08.165Z,98193.04
2018-09-20T06:32:36.121Z,98185.66
2018-09-20T06:35:04.160Z,98181.61
2018-09-20T06:37:31.988Z,98187.24
2018-09-20T06:39:59.967Z,98190.20
2018-09-20T06:42:27.969Z,98189.19
2018-09-20T06:44:56.070Z,98187.55
2018-09-20T06:47:23.871Z,98187.12
2018-09-20T06:49:51.733Z,98186.59
2018-09-20T06:52:19.680Z,98187.27
2018-09-20T06:54:47.503Z,98183.69
2018-09-20T06:57:15.454Z,98175.22
2018-09-20T06:59:43.847Z,98175.52
2018-09-20T07:02:11.835Z,98176.52
2018-09-20T07:04:39.706Z,98178.91
2018-09-20T07:07:07.597Z,98171.25
2018-09-20T07:09:35.440Z,98169.03
2018-09-20T07:12:03.278Z,98171.64
2018-09-20T07:14:31.094Z,98181.38
2018-09-20T07:16:58.949Z,98175.11
2018-09-20T07:19:26.990Z,98171.63
2018-09-20T07:21:55.009Z,98178.14
2018-09-20T07:24:22.954Z,98179.80
2018-09-20T07:26:50.930Z,98181.30
2018-09-20T07:29:18.853Z,98176.89
2018-09-20T07:31:46.665Z,98175.96
2018-09-20T07:34:14.641Z,98179.73
2018-09-20T07:36:42.665Z,98183.67
2018-09-20T07:39:10.921Z,98177.36
2018-09-20T07:41:39.274Z,98180.77
2018-09-20T07:44:07.630Z,98176.69
2018-09-20T07:46:35.541Z,98177.72
2018-09-20T07:49:03.621Z,98168.80
2018-09-20T07:51:31.476Z,98170.77
2018-09-20T07:53:59.557Z,98168.66
2018-09-20T07:56:27.464Z,98168.02
2018-09-20T07:58:55.294Z,98174.55
2018-09-20T08:01:23.289Z,98166.39
2018-09-20T08:03:51.263Z,98169.01
2018-09-20T08:06:19.111Z,98170.69
2018-09-20T08:08:47.294Z,98170.67
2018-09-20T08:11:15.263Z,98169.00
2018-09-20T08:13:43.133Z,98170.91
2018-09-20T08:16:11.035Z,98175.01
2018-09-20T08:18:39.155Z,98174.63
2018-09-20T08:21:07.299Z,98175.73
2018-09-20T08:23:35.220Z,98171.87
2018-09-20T08:26:03.125Z,98172.45
2018-09-20T08:28:30.971Z,98169.50
2018-09-20T08:30:58.874Z,98174.23
2018-09-20T08:33:26.739Z,98164.72
2018-09-20T08:35:54.603Z,98163.32
2018-09-20T08:38:22.489Z,98167.97
2018-09-20T08:40:50.433Z,98161.13
2018-09-20T08:43:18.382Z,98161.20
2018-09-20T08:45:46.275Z,98156.83
2018-09-20T08:48:14.250Z,98153.89
2018-09-20T08:50:42.223Z,98150.31
2018-09-20T08:53:10.135Z,98152.09
2018-09-20T08:55:37.959Z,98149.16
2018-09-20T08:58:05.952Z,98146.91
2018-09-20T09:00:33.843Z,98147.34
2018-09-20T09:03:01.798Z,98146.63
2018-09-20T09:05:29.661Z,98150.36
2018-09-20T09:07:57.804Z,98149.98
2018-09-20T09:10:25.689Z,98145.67
2018-09-20T09:12:53.694Z,98147.63
2018-09-20T09:15:21.615Z,98149.53
2018-09-20T09:17:49.733Z,98144.30
2018-09-20T09:20:17.594Z,98143.20
2018-09-20T09:22:45.735Z,98146.12
2018-09-20T09:25:13.559Z,98139.81
2018-09-20T09:27:41.433Z,98138.84
2018-09-20T09:30:09.330Z,98138.30
2018-09-20T09:32:37.461Z,98135.10
2018-09-20T09:35:05.346Z,98134.39
2018-09-20T09:37:33.350Z,98135.15
2018-09-20T09:40:01.178Z,98137.30
2018-09-20T09:42:29.051Z,98124.38
2018-09-20T09:44:57.069Z,98122.14
2018-09-20T09:47:25.072Z,98121.47
2018-09-20T09:49:52.871Z,98120.25
2018-09-20T09:52:21.050Z,98124.62
2018-09-20T09:54:49.050Z,98116.22
2018-09-20T09:57:17.041Z,98113.93
2018-09-20T09:59:44.897Z,98115.33
2018-09-20T10:02:12.942Z,98105.07
2018-09-20T10:04:40.871Z,98102.22
2018-09-20T10:07:08.803Z,98099.57
2018-09-20T10:09:36.734Z,98096.50
2018-09-20T10:12:04.632Z,98087.92
2018-09-20T10:14:32.617Z,98087.19
2018-09-20T10:17:00.363Z,98084.79
2018-09-20T10:19:28.367Z,98082.62
2018-09-20T10:21:56.334Z,98088.11
2018-09-20T10:24:24.187Z,98073.19
2018-09-20T10:26:52.099Z,98079.53
2018-09-20T10:29:19.926Z,98066.94
2018-09-20T10:31:47.818Z,98066.05
2018-09-20T10:34:15.814Z,98063.84
2018-09-20T10:36:43.641Z,98054.34
2018-09-20T10:39:12.914Z,98068.88
2018-09-20T10:41:41.625Z,98061.52
2018-09-20T10:44:09.610Z,98059.25
2018-09-20T10:46:37.466Z,98053.14
2018-09-20T10:49:05.503Z,98050.58
2018-09-20T10:51:33.660Z,98051.33
2018-09-20T10:54:01.582Z,98048.05
2018-09-20T10:56:29.487Z,98050.90
2018-09-20T10:58:57.668Z,98045.66
2018-09-20T11:01:25.627Z,98033.72
2018-09-20T11:03:53.661Z,98030.96
2018-09-20T11:06:21.688Z,98042.19
2018-09-20T11:08:49.669Z,98029.59
2018-09-20T11:11:17.561Z,98027.41
2018-09-20T11:13:45.603Z,98035.84
2018-09-20T11:16:13.582Z,98026.02
2018-09-20T11:18:41.509Z,98024.16
2018-09-20T11:21:09.531Z,98036.74
2018-09-20T11:23:37.432Z,98041.06
2018-09-20T11:26:05.226Z,98037.45
2018-09-20T11:28:33.089Z,98036.34
2018-09-20T11:31:01.108Z,98029.24
2018-09-20T11:33:29.076Z,98034.63
2018-09-20T11:35:56.936Z,98020.83
2018-09-20T11:38:25.172Z,98016.11
2018-09-20T11:40:53.185Z,98012.95
2018-09-20T11:43:21.014Z,98020.20
2018-09-20T11:45:48.961Z,98011.78
2018-09-20T11:48:16.778Z,98004.48
2018-09-20T11:50:44.904Z,98005.91
2018-09-20T11:53:12.717Z,98014.89
2018-09-20T11:55:40.718Z,98003.02
2018-09-20T11:58:09.407Z,97998.00
2018-09-20T12:00:37.244Z,97996.88
2018-09-20T12:03:05.382Z,98003.57
2018-09-20T12:05:33.351Z,97992.77
2018-09-20T12:08:01.153Z,98000.34
2018-09-20T12:10:29.174Z,97992.59
2018-09-20T12:12:56.989Z,97990.21
2018-09-20T12:15:24.766Z,97984.87
2018-09-20T12:17:52.776Z,97984.47
2018-09-20T12:20:20.711Z,97970.02
2018-09-20T12:22:48.706Z,97974.14
2018-09-20T12:25:16.597Z,97965.39
2018-09-20T12:27:44.530Z,97967.85
2018-09-20T12:30:12.418Z,97956.92
2018-09-20T12:32:40.337Z,97958.58
2018-09-20T12:35:08.456Z,97952.14
2018-09-20T12:37:37.641Z,97944.09
2018-09-20T12:40:06.612Z,97942.14
2018-09-20T12:42:35.034Z,97938.25
2018-09-20T12:45:03.024Z,97937.91
2018-09-20T12:47:31.330Z,97937.66
2018-09-20T12:49:59.290Z,97943.98
2018-09-20T12:52:27.105Z,97933.63
2018-09-20T12:54:55.380Z,97930.34
2018-09-20T12:57:23.360Z,97928.75
2018-09-20T12:59:51.027Z,97933.47
2018-09-20T13:02:18.811Z,97919.44
2018-09-20T13:04:46.718Z,97924.49
2018-09-20T13:07:14.564Z,97921.23
2018-09-20T13:09:42.444Z,97919.16
2018-09-20T13:12:10.438Z,97929.52
2018-09-20T13:14:38.273Z,97915.19
2018-09-20T13:17:06.948Z,97925.95
2018-09-20T13:19:34.930Z,97917.91
2018-09-20T13:22:03.159Z,97915.86
2018-09-20T13:24:31.019Z,97912.52
2018-09-20T13:26:58.801Z,97916.19
2018-09-20T13:29:26.646Z,97912.75
2018-09-20T13:31:54.527Z,97912.13
2018-09-20T13:34:22.463Z,97908.62
2018-09-20T13:36:50.328Z,97902.36
2018-09-20T13:39:18.347Z,97893.02
2018-09-20T13:41:46.205Z,97900.80
2018-09-20T13:44:14.287Z,97903.65
2018-09-20T13:46:42.720Z,97897.45
2018-09-20T13:49:10.514Z,97886.69
2018-09-20T13:51:38.434Z,97886.94
2018-09-20T13:54:06.434Z,97879.52
2018-09-20T13:56:34.358Z,97874.93
2018-09-20T13:59:02.130Z,97870.98
2018-09-20T14:01:30.092Z,97881.98
2018-09-20T14:03:57.948Z,97877.70
2018-09-20T14:06:25.866Z,97887.14
2018-09-20T14:08:53.939Z,97867.17
2018-09-20T14:11:21.788Z,97870.96
2018-09-20T14:13:49.678Z,97873.64
2018-09-20T14:16:17.510Z,97860.52
2018-09-20T14:18:45.583Z,97867.63
2018-09-20T14:21:13.489Z,97860.63
2018-09-20T14:23:41.504Z,97856.44
2018-09-20T14:26:09.404Z,97855.94
2018-09-20T14:28:37.329Z,97860.60
2018-09-20T14:31:05.252Z,97864.78
2018-09-20T14:33:33.109Z,97858.47
2018-09-20T14:36:00.918Z,97862.58
2018-09-20T14:38:28.780Z,97857.19
2018-09-20T14:40:56.840Z,97864.68
2018-09-20T14:43:24.853Z,97860.98
2018-09-20T14:45:52.705Z,97857.30
2018-09-20T14:48:20.661Z,97855.11
2018-09-20T14:50:48.574Z,97862.45
2018-09-20T14:53:16.416Z,97859.61
2018-09-20T14:55:44.483Z,97853.58
2018-09-20T14:58:12.486Z,97851.11
2018-09-20T15:00:41.071Z,97856.03
2018-09-20T15:03:08.725Z,97855.76
2018-09-20T15:05:36.472Z,97860.19
2018-09-20T15:08:04.192Z,97852.69
2018-09-20T15:10:31.889Z,97846.91
2018-09-20T15:12:59.668Z,97842.88
2018-09-20T15:15:27.342Z,97847.47
2018-09-20T15:17:55.033Z,97844.14
2018-09-20T15:20:22.721Z,97849.59
2018-09-20T15:22:50.371Z,97851.92
2018-09-20T15:25:18.038Z,97852.07
2018-09-20T15:27:45.732Z,97840.53
2018-09-20T15:30:13.537Z,97838.16
2018-09-20T15:32:41.300Z,97838.53
2018-09-20T15:35:09.048Z,97838.27
2018-09-20T15:37:36.704Z,97846.86
2018-09-20T15:40:04.519Z,97842.16
2018-09-20T15:42:32.304Z,97835.91
2018-09-20T15:45:00.221Z,97840.48
2018-09-20T15:47:28.113Z,97837.90
2018-09-20T15:49:56.078Z,97841.22
2018-09-20T15:52:24.070Z,97836.95
2018-09-20T15:54:51.764Z,97837.91
2018-09-20T15:57:19.631Z,97842.16
2018-09-20T15:59:47.797Z,97841.84
2018-09-20T16:02:15.611Z,97839.55
2018-09-20T16:04:43.486Z,97845.08
2018-09-20T16:07:11.521Z,97842.41
2018-09-20T16:09:39.524Z,97837.11
2018-09-20T16:12:07.281Z,97835.20
2018-09-20T16:14:35.000Z,97834.33
2018-09-20T16:17:02.701Z,97832.03
2018-09-20T16:19:30.391Z,97833.31
2018-09-20T16:21:58.102Z,97830.88
2018-09-20T16:24:25.910Z,97827.92
2018-09-20T16:26:53.601Z,97828.75
2018-09-20T16:29:33.044Z,97823.50
2018-09-20T16:32:20.170Z,97818.55
2018-09-20T16:35:04.141Z,97823.74
2018-09-20T16:37:49.343Z,97818.95
2018-09-20T16:40:18.807Z,97810.16
2018-09-20T16:42:49.746Z,97818.80
2018-09-20T16:45:17.569Z,97816.00
2018-09-20T16:47:45.222Z,97814.49
2018-09-20T16:50:12.941Z,97809.38
2018-09-20T16:52:40.805Z,97812.39
2018-09-20T16:55:08.516Z,97807.95
2018-09-20T16:57:36.240Z,97811.56
2018-09-20T17:00:05.368Z,97805.20
2018-09-20T17:02:33.014Z,97807.08
2018-09-20T17:05:00.706Z,97801.13
2018-09-20T17:07:28.371Z,97799.78
2018-09-20T17:09:56.043Z,97809.71
2018-09-20T17:12:23.727Z,97802.03
2018-09-20T17:14:51.404Z,97806.66
2018-09-20T17:17:19.073Z,97803.91
2018-09-20T17:19:46.780Z,97805.67
2018-09-20T17:22:14.483Z,97806.22
2018-09-20T17:24:52.588Z,97805.83
2018-09-20T17:27:20.548Z,97803.92
2018-09-20T17:29:48.402Z,97806.60
2018-09-20T17:32:16.132Z,97804.20
2018-09-20T17:34:44.265Z,97805.18
2018-09-20T17:37:13.527Z,97800.07
2018-09-20T17:39:42.887Z,97801.85
2018-09-20T17:42:12.222Z,97802.70
2018-09-20T17:44:40.059Z,97800.80
2018-09-20T17:47:07.766Z,97799.67
2018-09-20T17:49:35.527Z,97800.73
2018-09-20T17:52:03.474Z,97805.02
2018-09-20T17:54:31.662Z,97808.80
2018-09-20T17:56:59.856Z,97804.70
2018-09-20T17:59:27.569Z,97806.97
2018-09-20T18:01:55.246Z,97809.66
2018-09-20T18:04:23.026Z,97806.57
2018-09-20T18:06:50.857Z,97809.83
2018-09-20T18:09:18.662Z,97809.96
2018-09-20T18:11:46.384Z,97810.88
2018-09-20T18:14:14.121Z,97813.20
2018-09-20T18:16:41.912Z,97809.36
2018-09-20T18:19:09.742Z,97802.51
2018-09-20T18:21:37.509Z,97808.59
2018-09-20T18:24:05.276Z,97811.37
2018-09-20T18:26:32.970Z,97814.84
2018-09-20T18:29:00.814Z,97816.52
2018-09-20T18:31:28.516Z,97813.73
2018-09-20T18:33:56.301Z,97811.55
2018-09-20T18:36:24.050Z,97809.08
2018-09-20T18:38:51.805Z,97812.67
2018-09-20T18:41:19.701Z,97817.48
2018-09-20T18:43:48.149Z,97815.29
2018-09-20T18:46:15.996Z,97816.71
2018-09-20T18:48:44.404Z,97813.87
2018-09-20T18:51:12.810Z,97814.56
2018-09-20T18:53:40.757Z,97816.97
2018-09-20T18:56:09.203Z,97820.98
2018-09-20T18:58:37.143Z,97815.45
2018-09-20T19:01:05.287Z,97816.64
2018-09-20T19:03:33.167Z,97811.20
2018-09-20T19:06:01.081Z,97809.92
2018-09-20T19:08:28.805Z,97807.92
2018-09-20T19:10:56.668Z,97807.31
2018-09-20T19:13:24.498Z,97808.44
2018-09-20T19:15:52.358Z,97807.45
2018-09-20T19:18:20.227Z,97807.73
2018-09-20T19:20:48.089Z,97809.38
2018-09-20T19:23:15.881Z,97802.23
2018-09-20T19:25:43.633Z,97802.69
2018-09-20T19:28:11.482Z,97801.50
2018-09-20T19:31:17.026Z,97800.66
2018-09-20T19:33:44.752Z,97798.39
2018-09-20T19:36:12.489Z,97797.28
2018-09-20T19:38:40.339Z,97800.88
2018-09-20T19:41:08.159Z,97799.69
2018-09-20T19:43:35.863Z,97806.12
2018-09-20T19:46:03.610Z,97803.70
2018-09-20T19:48:31.362Z,97797.97
2018-09-20T19:50:59.227Z,97791.34
2018-09-20T19:53:26.997Z,97793.84
2018-09-20T19:55:54.731Z,97796.48
2018-09-20T19:58:22.577Z,97794.17
2018-09-20T20:00:50.498Z,97792.66
2018-09-20T20:03:18.595Z,97794.58
2018-09-20T20:05:46.570Z,97783.80
2018-09-20T20:08:14.852Z,97786.73
2018-09-20T20:10:42.744Z,97792.41
2018-09-20T20:13:10.572Z,97787.97
2018-09-20T20:15:38.441Z,97790.55
2018-09-20T20:18:06.073Z,97785.91
2018-09-20T20:20:33.862Z,97784.33
2018-09-20T20:23:01.784Z,97790.92
2018-09-20T20:25:29.640Z,97786.09
2018-09-20T20:27:57.470Z,97782.51
2018-09-20T20:30:25.508Z,97783.83
2018-09-20T20:32:53.408Z,97779.23
2018-09-20T20:35:21.217Z,97776.61
2018-09-20T20:37:49.165Z,97772.45
2018-09-20T20:40:16.939Z,97777.01
2018-09-20T20:42:44.758Z,97779.22
2018-09-20T20:45:12.972Z,97778.64
2018-09-20T20:47:40.905Z,97777.03
2018-09-20T20:50:08.622Z,97776.31
2018-09-20T20:52:36.511Z,97775.86
2018-09-20T20:55:04.443Z,97772.55
2018-09-20T20:57:32.156Z,97771.12
2018-09-20T20:59:59.859Z,97769.35
2018-09-20T21:02:27.721Z,97768.39
2018-09-20T21:04:55.483Z,97771.92
2018-09-20T21:07:23.171Z,97766.73
2018-09-20T21:09:50.892Z,97770.61
2018-09-20T21:12:18.601Z,97769.75
2018-09-20T21:14:46.276Z,97766.17
2018-09-20T21:17:14.002Z,97765.25
2018-09-20T21:19:41.678Z,97763.53
2018-09-20T21:22:09.357Z,97759.22
2018-09-20T21:24:37.134Z,97760.14
2018-09-20T21:27:05.489Z,97762.97
2018-09-20T21:29:33.226Z,97757.70
2018-09-20T21:32:00.925Z,97760.17
2018-09-20T21:34:28.617Z,97759.97
2018-09-20T21:36:56.556Z,97748.85
2018-09-20T21:39:24.356Z,97748.09
2018-09-20T21:41:52.022Z,97747.02
2018-09-20T21:44:19.729Z,97742.98
2018-09-20T21:46:47.596Z,97740.03
2018-09-20T21:49:15.268Z,97745.62
2018-09-20T21:51:43.280Z,97741.46
2018-09-20T21:54:10.978Z,97737.13
2018-09-20T21:56:38.682Z,97736.83
2018-09-20T21:59:06.947Z,97732.03
2018-09-20T22:01:40.234Z,97729.03
2018-09-20T22:04:08.520Z,97729.95
2018-09-20T22:06:36.826Z,97728.92
2018-09-20T22:09:08.159Z,97720.89
2018-09-20T22:11:35.996Z,97720.99
2018-09-20T22:14:03.734Z,97720.63
2018-09-20T22:16:31.425Z,97715.14
2018-09-20T22:18:59.114Z,97715.07
2018-09-20T22:21:26.822Z,97722.89
2018-09-20T22:23:54.585Z,97722.50
2018-09-20T22:26:22.321Z,97714.97
2018-09-20T22:28:50.002Z,97705.92
2018-09-20T22:31:18.213Z,97710.25
2018-09-20T22:33:46.738Z,97700.52
2018-09-20T22:36:14.434Z,97698.75
2018-09-20T22:38:42.155Z,97694.14
2018-09-20T22:41:09.877Z,97694.70
2018-09-20T22:43:37.609Z,97681.88
2018-09-20T22:46:05.457Z,97682.70
2018-09-20T22:48:33.136Z,97679.05
2018-09-20T22:51:00.800Z,97678.45
2018-09-20T22:53:28.550Z,97677.33
2018-09-20T22:55:56.318Z,97673.58
2018-09-20T22:58:24.005Z,97674.14
2018-09-20T23:00:51.726Z,97680.27
2018-09-20T23:03:20.276Z,97674.80
2018-09-20T23:05:47.955Z,97673.36
2018-09-20T23:08:15.773Z,97676.68
2018-09-20T23:10:43.615Z,97668.95
2018-09-20T23:13:11.425Z,97675.82
2018-09-20T23:15:39.247Z,97667.99
2018-09-20T23:18:07.015Z,97664.70
2018-09-20T23:20:34.818Z,97660.75
2018-09-20T23:23:02.664Z,97659.14
2018-09-20T23:25:30.473Z,97658.68
2018-09-20T23:27:58.277Z,97657.73
2018-09-20T23:30:26.034Z,97651.88
2018-09-20T23:32:53.826Z,97650.30
2018-09-20T23:35:21.622Z,97646.05
2018-09-20T23:37:49.436Z,97646.78
2018-09-20T23:40:17.224Z,97639.80
2018-09-20T23:42:45.298Z,97644.34
2018-09-20T23:45:13.234Z,97638.78
2018-09-20T23:47:41.279Z,97634.73
2018-09-20T23:50:09.764Z,97632.92
2018-09-20T23:52:37.657Z,97638.32
2018-09-20T23:55:05.912Z,97632.86
2018-09-20T23:57:33.601Z,97632.66
